createdAt,value
2019-03-15T00:01:11.228Z,23.60
2019-03-15T00:03:37.645Z,17.43
2019-03-15T00:06:04.389Z,18.77
2019-03-15T00:08:31.334Z,16.80
2019-03-15T00:10:57.965Z,27.40
2019-03-15T00:13:24.298Z,21.90
2019-03-15T00:15:50.726Z,23.87
2019-03-15T00:18:17.270Z,17.20
2019-03-15T00:20:43.808Z,20.70
2019-03-15T00:23:10.199Z,18.07
2019-03-15T00:25:36.763Z,18.60
2019-03-15T00:28:03.273Z,21.47
2019-03-15T00:30:29.764Z,19.03
2019-03-15T00:32:56.272Z,23.20
2019-03-15T00:35:22.661Z,20.67
2019-03-15T00:37:49.227Z,21.43
2019-03-15T00:40:16.749Z,21.27
2019-03-15T00:42:43.359Z,22.93
2019-03-15T00:45:10.059Z,20.90
2019-03-15T00:47:36.577Z,27.93
2019-03-15T00:50:06.982Z,20.57
2019-03-15T00:52:33.506Z,22.83
2019-03-15T00:54:59.846Z,15.23
2019-03-15T00:57:26.161Z,21.83
2019-03-15T00:59:52.559Z,17.30
2019-03-15T01:02:19.122Z,20.47
2019-03-15T01:04:45.603Z,17.27
2019-03-15T01:07:12.197Z,22.30
2019-03-15T01:09:38.633Z,22.40
2019-03-15T01:12:05.154Z,23.03
2019-03-15T01:14:31.559Z,19.57
2019-03-15T01:16:57.832Z,19.10
2019-03-15T01:19:24.294Z,22.23
2019-03-15T01:21:50.722Z,26.13
2019-03-15T01:24:17.157Z,20.23
2019-03-15T01:26:43.563Z,21.27
2019-03-15T01:29:10.020Z,31.77
2019-03-15T01:31:36.323Z,28.60
2019-03-15T01:34:02.979Z,24.00
2019-03-15T01:36:29.598Z,22.87
2019-03-15T01:38:55.919Z,22.97
2019-03-15T01:41:22.232Z,25.47
2019-03-15T01:43:48.644Z,25.70
2019-03-15T01:46:15.089Z,22.27
2019-03-15T01:48:42.158Z,22.87
2019-03-15T01:51:09.200Z,23.57
2019-03-15T01:53:35.689Z,26.30
2019-03-15T01:56:02.444Z,22.17
2019-03-15T01:58:28.868Z,17.03
2019-03-15T02:00:55.134Z,20.30
2019-03-15T02:03:21.609Z,19.27
2019-03-15T02:05:48.091Z,24.50
2019-03-15T02:08:14.549Z,19.10
2019-03-15T02:10:41.443Z,22.73
2019-03-15T02:13:07.969Z,22.73
2019-03-15T02:15:34.324Z,23.37
2019-03-15T02:18:00.912Z,20.53
2019-03-15T02:20:27.498Z,17.60
2019-03-15T02:22:54.038Z,33.80
2019-03-15T02:25:20.364Z,21.30
2019-03-15T02:27:46.753Z,23.23
2019-03-15T02:30:13.181Z,20.20
2019-03-15T02:32:39.854Z,25.13
2019-03-15T02:35:06.519Z,22.23
2019-03-15T02:37:33.763Z,20.47
2019-03-15T02:40:00.590Z,22.27
2019-03-15T02:42:26.903Z,30.40
2019-03-15T02:44:53.591Z,18.07
2019-03-15T02:47:19.943Z,25.83
2019-03-15T02:49:46.445Z,23.33
2019-03-15T02:52:12.934Z,24.33
2019-03-15T02:54:39.356Z,20.17
2019-03-15T02:57:05.681Z,24.47
2019-03-15T02:59:32.130Z,15.07
2019-03-15T03:01:58.654Z,23.83
2019-03-15T03:04:25.177Z,20.00
2019-03-15T03:06:51.627Z,17.27
2019-03-15T03:09:18.029Z,20.63
2019-03-15T03:11:44.339Z,20.63
2019-03-15T03:14:10.637Z,24.17
2019-03-15T03:16:37.172Z,21.93
2019-03-15T03:19:03.501Z,22.87
2019-03-15T03:21:29.813Z,23.47
2019-03-15T03:23:57.342Z,25.17
2019-03-15T03:26:24.061Z,25.90
2019-03-15T03:28:50.693Z,23.50
2019-03-15T03:31:17.093Z,19.87
2019-03-15T03:33:43.981Z,19.20
2019-03-15T03:36:10.451Z,21.40
2019-03-15T03:38:36.912Z,21.67
2019-03-15T03:41:03.366Z,14.03
2019-03-15T03:43:29.715Z,20.53
2019-03-15T03:45:56.135Z,19.83
2019-03-15T03:48:22.839Z,14.30
2019-03-15T03:50:49.232Z,19.07
2019-03-15T03:53:15.745Z,21.67
2019-03-15T03:55:42.231Z,19.13
2019-03-15T03:58:08.866Z,18.63
2019-03-15T04:00:35.464Z,18.70
2019-03-15T04:03:01.965Z,21.57
2019-03-15T04:05:28.386Z,19.23
2019-03-15T04:07:54.950Z,19.03
2019-03-15T04:10:21.438Z,20.40
2019-03-15T04:12:48.088Z,17.30
2019-03-15T04:15:14.728Z,15.70
2019-03-15T04:17:41.197Z,12.50
2019-03-15T04:20:10.155Z,18.83
2019-03-15T04:22:36.464Z,20.37
2019-03-15T04:25:07.322Z,17.70
2019-03-15T04:27:33.788Z,23.73
2019-03-15T04:30:00.211Z,14.90
2019-03-15T04:32:26.604Z,21.03
2019-03-15T04:34:53.166Z,14.73
2019-03-15T04:37:22.623Z,20.30
2019-03-15T04:39:47.655Z,19.03
2019-03-15T04:42:13.965Z,17.37
2019-03-15T04:44:40.647Z,25.93
2019-03-15T04:47:06.964Z,19.73
2019-03-15T04:49:33.532Z,14.80
2019-03-15T04:51:59.953Z,19.70
2019-03-15T04:54:26.490Z,15.53
2019-03-15T04:56:52.924Z,16.53
2019-03-15T04:59:19.345Z,22.20
2019-03-15T05:01:45.697Z,18.23
2019-03-15T05:04:12.176Z,19.70
2019-03-15T05:06:38.619Z,14.03
2019-03-15T05:09:05.318Z,16.20
2019-03-15T05:11:32.047Z,19.27
2019-03-15T05:13:59.029Z,17.20
2019-03-15T05:16:25.664Z,17.27
2019-03-15T05:18:52.057Z,19.67
2019-03-15T05:21:18.520Z,12.07
2019-03-15T05:23:44.802Z,16.57
2019-03-15T05:26:11.293Z,21.57
2019-03-15T05:28:37.605Z,17.27
2019-03-15T05:31:04.199Z,19.00
2019-03-15T05:33:30.800Z,15.20
2019-03-15T05:35:57.317Z,14.07
2019-03-15T05:38:23.698Z,16.40
2019-03-15T05:40:51.847Z,14.63
2019-03-15T05:43:18.244Z,14.47
2019-03-15T05:45:44.741Z,13.03
2019-03-15T05:48:11.356Z,18.77
2019-03-15T05:50:40.653Z,18.23
2019-03-15T05:53:06.203Z,16.30
2019-03-15T05:55:32.731Z,15.07
2019-03-15T05:57:59.059Z,15.60
2019-03-15T06:00:25.592Z,19.60
2019-03-15T06:02:52.125Z,24.43
2019-03-15T06:05:18.509Z,22.43
2019-03-15T06:07:45.063Z,19.03
2019-03-15T06:10:12.298Z,15.60
2019-03-15T06:12:38.737Z,20.73
2019-03-15T06:15:08.245Z,16.40
2019-03-15T06:17:34.599Z,22.07
2019-03-15T06:20:01.262Z,17.43
2019-03-15T06:22:27.810Z,17.77
2019-03-15T06:24:54.313Z,23.47
2019-03-15T06:27:20.721Z,19.97
2019-03-15T06:29:47.159Z,22.20
2019-03-15T06:32:13.455Z,18.10
2019-03-15T06:34:39.936Z,22.27
2019-03-15T06:37:06.560Z,16.37
2019-03-15T06:39:32.899Z,15.93
2019-03-15T06:41:59.334Z,14.77
2019-03-15T06:44:25.774Z,19.27
2019-03-15T06:46:52.318Z,17.87
2019-03-15T06:49:18.674Z,17.67
2019-03-15T06:51:45.074Z,22.67
2019-03-15T06:54:12.026Z,18.13
2019-03-15T06:56:38.597Z,16.00
2019-03-15T06:59:04.932Z,15.80
2019-03-15T07:01:31.418Z,22.57
2019-03-15T07:03:57.971Z,22.50
2019-03-15T07:06:24.553Z,19.43
2019-03-15T07:08:50.986Z,19.83
2019-03-15T07:11:17.367Z,24.77
2019-03-15T07:13:43.969Z,17.57
2019-03-15T07:16:10.325Z,18.47
2019-03-15T07:18:36.819Z,23.07
2019-03-15T07:21:03.275Z,23.80
2019-03-15T07:23:29.671Z,23.70
2019-03-15T07:25:56.113Z,20.87
2019-03-15T07:28:22.499Z,19.47
2019-03-15T07:30:48.821Z,23.57
2019-03-15T07:33:15.094Z,14.67
2019-03-15T07:35:41.531Z,25.57
2019-03-15T07:38:07.947Z,20.43
2019-03-15T07:40:34.570Z,20.83
2019-03-15T07:43:04.942Z,19.30
2019-03-15T07:45:29.575Z,15.03
2019-03-15T07:47:56.116Z,20.30
2019-03-15T07:50:22.744Z,12.30
2019-03-15T07:52:49.035Z,15.63
2019-03-15T07:55:15.463Z,19.70
2019-03-15T07:57:41.771Z,17.80
2019-03-15T08:00:13.648Z,15.43
2019-03-15T08:02:40.045Z,19.43
2019-03-15T08:05:07.743Z,17.17
2019-03-15T08:07:36.596Z,17.13
2019-03-15T08:10:06.605Z,15.97
2019-03-15T08:12:33.166Z,12.83
2019-03-15T08:14:59.576Z,15.73
2019-03-15T08:17:26.089Z,12.30
2019-03-15T08:19:52.605Z,9.37
2019-03-15T08:22:19.074Z,15.37
2019-03-15T08:24:51.452Z,7.10
2019-03-15T08:27:16.085Z,6.70
2019-03-15T08:29:42.276Z,8.03
2019-03-15T08:32:08.685Z,10.93
2019-03-15T08:34:34.978Z,12.30
2019-03-15T08:37:01.589Z,12.00
2019-03-15T08:39:28.103Z,8.30
2019-03-15T08:41:54.481Z,7.50
2019-03-15T08:44:20.997Z,9.73
2019-03-15T08:46:47.477Z,6.70
2019-03-15T08:49:13.784Z,6.67
2019-03-15T08:51:40.268Z,5.23
2019-03-15T08:54:06.590Z,9.47
2019-03-15T08:56:32.866Z,6.03
2019-03-15T08:58:59.336Z,6.20
2019-03-15T09:01:25.756Z,5.53
2019-03-15T09:03:52.345Z,5.13
2019-03-15T09:06:18.953Z,5.57
2019-03-15T09:08:45.321Z,4.97
2019-03-15T09:11:11.797Z,6.50
2019-03-15T09:13:38.216Z,5.03
2019-03-15T09:16:04.656Z,5.77
2019-03-15T09:18:31.141Z,5.33
2019-03-15T09:20:57.601Z,6.80
2019-03-15T09:23:24.013Z,4.70
2019-03-15T09:25:50.379Z,5.90
2019-03-15T09:28:16.791Z,5.23
2019-03-15T09:30:43.336Z,4.43
2019-03-15T09:33:09.681Z,4.30
2019-03-15T09:35:36.030Z,6.27
2019-03-15T09:38:02.728Z,6.77
2019-03-15T09:40:29.231Z,6.60
2019-03-15T09:42:55.786Z,4.73
2019-03-15T09:45:22.315Z,4.13
2019-03-15T09:47:48.885Z,4.27
2019-03-15T09:50:26.537Z,5.73
2019-03-15T09:52:44.627Z,4.00
2019-03-15T09:55:12.329Z,4.13
2019-03-15T09:57:38.975Z,5.27
2019-03-15T10:00:17.917Z,4.33
2019-03-15T10:02:44.655Z,4.43
2019-03-15T10:05:11.831Z,7.03
2019-03-15T10:07:39.143Z,4.97
2019-03-15T10:10:18.153Z,4.33
2019-03-15T10:12:43.034Z,4.83
2019-03-15T10:15:12.420Z,5.03
2019-03-15T10:17:38.970Z,7.37
2019-03-15T10:20:08.198Z,7.63
2019-03-15T10:22:34.626Z,9.23
2019-03-15T10:25:01.237Z,7.37
2019-03-15T10:27:27.871Z,8.47
2019-03-15T10:29:54.260Z,7.13
2019-03-15T10:32:20.909Z,7.00
2019-03-15T10:34:47.301Z,7.13
2019-03-15T10:37:13.859Z,7.60
2019-03-15T10:39:40.396Z,8.53
2019-03-15T10:42:06.822Z,8.50
2019-03-15T10:44:33.307Z,8.00
2019-03-15T10:46:59.642Z,8.70
2019-03-15T10:49:26.038Z,9.97
2019-03-15T10:51:52.544Z,8.00
2019-03-15T10:54:19.023Z,9.00
2019-03-15T10:56:45.647Z,9.77
2019-03-15T10:59:12.399Z,8.60
2019-03-15T11:01:39.052Z,9.83
2019-03-15T11:04:05.593Z,9.87
2019-03-15T11:06:32.214Z,9.50
2019-03-15T11:08:58.710Z,10.43
2019-03-15T11:11:26.134Z,10.17
2019-03-15T11:13:55.509Z,12.23
2019-03-15T11:16:21.349Z,18.00
2019-03-15T11:18:48.023Z,15.37
2019-03-15T11:21:14.578Z,16.90
2019-03-15T11:23:41.059Z,20.23
2019-03-15T11:26:13.469Z,17.10
2019-03-15T11:28:35.664Z,18.30
2019-03-15T11:31:02.218Z,17.33
2019-03-15T11:33:28.835Z,17.60
2019-03-15T11:35:55.348Z,16.73
2019-03-15T11:38:21.878Z,17.37
2019-03-15T11:40:48.392Z,27.47
2019-03-15T11:43:14.899Z,22.90
2019-03-15T11:45:41.438Z,23.27
2019-03-15T11:48:09.142Z,22.67
2019-03-15T11:50:35.685Z,16.87
2019-03-15T11:53:02.393Z,21.13
2019-03-15T11:55:28.833Z,18.87
2019-03-15T11:57:55.342Z,17.93
2019-03-15T12:00:21.983Z,20.93
2019-03-15T12:02:48.704Z,14.17
2019-03-15T12:05:15.378Z,13.97
2019-03-15T12:07:42.125Z,23.87
2019-03-15T12:10:13.293Z,17.73
2019-03-15T12:12:39.815Z,19.70
2019-03-15T12:15:09.509Z,22.33
2019-03-15T12:17:36.108Z,19.07
2019-03-15T12:20:06.879Z,20.47
2019-03-15T12:22:33.523Z,16.73
2019-03-15T12:24:59.818Z,22.90
2019-03-15T12:27:26.386Z,21.80
2019-03-15T12:29:52.973Z,21.50
2019-03-15T12:32:19.562Z,24.50
2019-03-15T12:34:46.145Z,20.27
2019-03-15T12:37:12.706Z,25.23
2019-03-15T12:39:39.137Z,25.90
2019-03-15T12:42:05.728Z,25.77
2019-03-15T12:44:32.375Z,26.50
2019-03-15T12:46:58.955Z,21.10
2019-03-15T12:49:25.811Z,22.93
2019-03-15T12:51:52.398Z,23.47
2019-03-15T12:54:19.050Z,23.17
2019-03-15T12:56:53.630Z,26.40
2019-03-15T12:59:14.319Z,22.53
2019-03-15T13:01:40.829Z,20.97
2019-03-15T13:04:07.619Z,25.20
2019-03-15T13:06:34.159Z,24.23
2019-03-15T13:09:00.666Z,22.23
2019-03-15T13:11:26.948Z,22.73
2019-03-15T13:13:53.732Z,24.37
2019-03-15T13:16:20.333Z,22.43
2019-03-15T13:18:46.935Z,25.60
2019-03-15T13:21:13.598Z,24.10
2019-03-15T13:23:39.975Z,22.90
2019-03-15T13:26:06.686Z,18.67
2019-03-15T13:28:33.348Z,16.90
2019-03-15T13:31:00.016Z,18.40
2019-03-15T13:33:26.987Z,19.67
2019-03-15T13:35:53.402Z,17.20
2019-03-15T13:38:19.955Z,17.40
2019-03-15T13:40:46.475Z,18.83
2019-03-15T13:43:13.123Z,16.87
2019-03-15T13:45:39.668Z,16.47
2019-03-15T13:48:06.428Z,16.40
2019-03-15T13:50:33.080Z,16.03
2019-03-15T13:52:59.447Z,15.43
2019-03-15T13:55:26.118Z,18.43
2019-03-15T13:57:52.626Z,18.37
2019-03-15T14:00:19.309Z,10.93
2019-03-15T14:02:46.031Z,15.03
2019-03-15T14:05:12.887Z,14.60
2019-03-15T14:07:39.518Z,17.60
2019-03-15T14:10:12.421Z,15.70
2019-03-15T14:12:39.233Z,14.37
2019-03-15T14:15:11.613Z,17.13
2019-03-15T14:17:38.073Z,12.77
2019-03-15T14:20:08.499Z,14.60
2019-03-15T14:22:35.156Z,17.03
2019-03-15T14:25:02.697Z,14.77
2019-03-15T14:27:37.625Z,19.40
2019-03-15T14:29:57.736Z,16.53
2019-03-15T14:32:24.414Z,15.50
2019-03-15T14:34:50.824Z,15.87
2019-03-15T14:37:17.699Z,13.50
2019-03-15T14:39:44.654Z,12.07
2019-03-15T14:42:11.501Z,11.53
2019-03-15T14:44:38.123Z,14.17
2019-03-15T14:47:04.755Z,14.47
2019-03-15T14:49:31.455Z,13.70
2019-03-15T14:51:59.245Z,19.13
2019-03-15T14:54:26.145Z,13.07
2019-03-15T14:56:52.792Z,12.43
2019-03-15T14:59:19.338Z,12.47
2019-03-15T15:01:45.934Z,10.27
2019-03-15T15:04:12.403Z,15.97
2019-03-15T15:06:38.973Z,11.87
2019-03-15T15:09:05.831Z,11.67
2019-03-15T15:11:32.531Z,10.23
2019-03-15T15:13:59.272Z,11.03
2019-03-15T15:16:25.624Z,10.40
2019-03-15T15:18:52.237Z,12.57
2019-03-15T15:21:19.098Z,14.43
2019-03-15T15:23:45.735Z,10.60
2019-03-15T15:26:12.601Z,12.00
2019-03-15T15:28:39.293Z,7.63
2019-03-15T15:31:06.069Z,12.70
2019-03-15T15:33:32.819Z,13.40
2019-03-15T15:35:59.479Z,8.93
2019-03-15T15:38:26.103Z,11.10
2019-03-15T15:40:52.867Z,13.03
2019-03-15T15:43:19.577Z,13.80
2019-03-15T15:45:46.238Z,13.57
2019-03-15T15:48:12.818Z,11.50
2019-03-15T15:50:39.275Z,10.47
2019-03-15T15:53:05.944Z,9.73
2019-03-15T15:55:32.627Z,12.80
2019-03-15T15:57:59.364Z,11.93
2019-03-15T16:00:26.191Z,12.97
2019-03-15T16:02:52.952Z,10.27
2019-03-15T16:05:19.768Z,10.33
2019-03-15T16:07:46.529Z,11.10
2019-03-15T16:10:17.426Z,12.60
2019-03-15T16:12:43.162Z,13.50
2019-03-15T16:15:18.234Z,9.93
2019-03-15T16:17:45.707Z,9.67
2019-03-15T16:20:12.924Z,8.40
2019-03-15T16:22:39.688Z,9.83
2019-03-15T16:25:08.590Z,6.60
2019-03-15T16:27:35.201Z,7.13
2019-03-15T16:30:03.254Z,9.43
2019-03-15T16:32:30.070Z,9.77
2019-03-15T16:34:56.869Z,9.23
2019-03-15T16:37:23.530Z,9.20
2019-03-15T16:39:50.337Z,9.17
2019-03-15T16:42:16.971Z,10.50
2019-03-15T16:44:43.776Z,6.87
2019-03-15T16:47:10.561Z,6.60
2019-03-15T16:49:37.328Z,5.57
2019-03-15T16:52:04.239Z,6.10
2019-03-15T16:54:31.216Z,5.83
2019-03-15T16:56:57.811Z,6.60
2019-03-15T16:59:24.717Z,3.43
2019-03-15T17:01:54.165Z,5.53
2019-03-15T17:04:20.144Z,7.80
2019-03-15T17:06:46.869Z,7.23
2019-03-15T17:09:13.595Z,6.17
2019-03-15T17:11:40.576Z,7.67
2019-03-15T17:14:07.298Z,7.83
2019-03-15T17:16:34.133Z,7.33
2019-03-15T17:19:00.928Z,7.37
2019-03-15T17:21:27.719Z,9.37
2019-03-15T17:23:54.350Z,6.20
2019-03-15T17:26:20.945Z,7.93
2019-03-15T17:28:57.868Z,8.33
2019-03-15T17:31:16.315Z,6.03
2019-03-15T17:33:43.134Z,7.63
2019-03-15T17:36:09.889Z,6.70
2019-03-15T17:38:36.578Z,13.30
2019-03-15T17:41:03.245Z,9.00
2019-03-15T17:43:30.096Z,8.77
2019-03-15T17:45:56.951Z,10.00
2019-03-15T17:48:23.774Z,11.57
2019-03-15T17:50:50.363Z,9.40
2019-03-15T17:53:17.013Z,13.90
2019-03-15T17:55:43.778Z,10.90
2019-03-15T17:58:10.459Z,9.60
2019-03-15T18:00:44.247Z,11.87
2019-03-15T18:03:20.550Z,12.20
2019-03-15T18:05:39.751Z,12.83
2019-03-15T18:08:06.457Z,15.00
2019-03-15T18:10:33.257Z,12.77
2019-03-15T18:13:00.128Z,15.17
2019-03-15T18:15:27.006Z,10.80
2019-03-15T18:17:53.826Z,11.23
2019-03-15T18:20:20.612Z,12.50
2019-03-15T18:22:47.239Z,13.80
2019-03-15T18:25:14.071Z,13.27
2019-03-15T18:27:40.983Z,13.67
2019-03-15T18:30:16.116Z,14.73
2019-03-15T18:32:42.864Z,17.63
2019-03-15T18:35:10.940Z,18.27
2019-03-15T18:37:38.005Z,13.53
2019-03-15T18:40:20.040Z,12.37
2019-03-15T18:42:47.242Z,16.77
2019-03-15T18:45:17.780Z,16.00
2019-03-15T18:47:44.527Z,14.37
2019-03-15T18:50:21.237Z,12.50
2019-03-15T18:52:48.043Z,20.60
2019-03-15T18:55:15.015Z,16.33
2019-03-15T18:57:41.756Z,14.70
2019-03-15T19:00:17.396Z,15.10
2019-03-15T19:02:44.145Z,22.23
2019-03-15T19:05:11.198Z,17.53
2019-03-15T19:07:37.924Z,19.43
2019-03-15T19:10:07.935Z,16.20
2019-03-15T19:12:34.783Z,16.20
2019-03-15T19:15:01.509Z,18.73
2019-03-15T19:17:28.057Z,20.50
2019-03-15T19:19:55.147Z,16.70
2019-03-15T19:22:22.971Z,18.80
2019-03-15T19:24:49.770Z,17.60
2019-03-15T19:27:16.425Z,18.20
2019-03-15T19:29:53.086Z,18.10
2019-03-15T19:32:12.026Z,18.17
2019-03-15T19:34:38.914Z,12.07
2019-03-15T19:37:05.796Z,19.80
2019-03-15T19:39:32.688Z,21.70
2019-03-15T19:41:59.658Z,21.20
2019-03-15T19:44:26.398Z,26.57
2019-03-15T19:46:53.343Z,15.77
2019-03-15T19:49:20.265Z,24.00
2019-03-15T19:51:47.206Z,18.93
2019-03-15T19:54:14.091Z,15.53
2019-03-15T19:56:42.456Z,14.57
2019-03-15T19:59:09.302Z,20.00
2019-03-15T20:01:36.194Z,19.30
2019-03-15T20:04:02.939Z,17.37
2019-03-15T20:06:29.550Z,17.20
2019-03-15T20:08:56.622Z,20.53
2019-03-15T20:11:23.495Z,13.40
2019-03-15T20:13:50.543Z,25.93
2019-03-15T20:16:17.480Z,13.67
2019-03-15T20:18:44.400Z,15.23
2019-03-15T20:21:11.219Z,13.50
2019-03-15T20:23:38.318Z,15.13
2019-03-15T20:26:05.169Z,16.30
2019-03-15T20:28:32.185Z,20.40
2019-03-15T20:30:59.049Z,19.53
2019-03-15T20:33:25.765Z,14.10
2019-03-15T20:35:52.723Z,12.27
2019-03-15T20:38:19.601Z,17.23
2019-03-15T20:40:46.702Z,14.87
2019-03-15T20:43:13.674Z,11.03
2019-03-15T20:45:40.718Z,19.50
2019-03-15T20:48:07.552Z,13.17
2019-03-15T20:50:46.287Z,14.90
2019-03-15T20:53:09.832Z,11.30
2019-03-15T20:55:32.202Z,16.67
2019-03-15T20:58:03.589Z,13.20
2019-03-15T21:00:36.059Z,10.20
2019-03-15T21:02:59.530Z,15.30
2019-03-15T21:05:26.325Z,14.57
2019-03-15T21:07:53.278Z,14.17
2019-03-15T21:10:20.217Z,11.63
2019-03-15T21:12:46.922Z,13.07
2019-03-15T21:15:14.965Z,14.63
2019-03-15T21:17:41.919Z,13.67
2019-03-15T21:20:17.306Z,10.57
2019-03-15T21:22:44.359Z,14.23
2019-03-15T21:25:11.121Z,14.83
2019-03-15T21:27:37.819Z,16.30
2019-03-15T21:30:19.217Z,13.63
2019-03-15T21:32:45.946Z,14.60
2019-03-15T21:35:12.752Z,13.93
2019-03-15T21:37:39.625Z,10.87
2019-03-15T21:40:10.676Z,16.67
2019-03-15T21:42:37.517Z,15.70
2019-03-15T21:45:09.644Z,14.73
2019-03-15T21:47:36.200Z,12.73
2019-03-15T21:50:19.004Z,16.17
2019-03-15T21:52:45.829Z,13.23
2019-03-15T21:55:12.524Z,14.47
2019-03-15T21:57:39.507Z,14.50
2019-03-15T22:00:15.175Z,17.60
2019-03-15T22:02:41.888Z,17.83
2019-03-15T22:05:08.674Z,14.73
2019-03-15T22:07:36.912Z,13.67
2019-03-15T22:10:13.309Z,10.67
2019-03-15T22:12:40.330Z,13.73
2019-03-15T22:15:09.572Z,15.17
2019-03-15T22:17:36.296Z,19.50
2019-03-15T22:20:16.215Z,14.17
2019-03-15T22:22:43.131Z,17.10
2019-03-15T22:25:10.675Z,15.40
2019-03-15T22:27:37.480Z,16.13
2019-03-15T22:30:13.282Z,19.03
2019-03-15T22:32:39.959Z,11.80
2019-03-15T22:35:07.010Z,18.67
2019-03-15T22:37:33.703Z,12.67
2019-03-15T22:40:00.542Z,17.10
2019-03-15T22:42:27.256Z,14.87
2019-03-15T22:44:53.991Z,12.87
2019-03-15T22:47:20.669Z,18.93
2019-03-15T22:49:47.241Z,16.47
2019-03-15T22:52:13.828Z,15.27
2019-03-15T22:54:40.695Z,16.43
2019-03-15T22:57:07.354Z,17.07
2019-03-15T22:59:33.925Z,11.07
2019-03-15T23:02:00.724Z,16.47
2019-03-15T23:04:27.421Z,22.83
2019-03-15T23:06:53.862Z,15.70
2019-03-15T23:09:20.371Z,18.47
2019-03-15T23:11:47.099Z,14.33
2019-03-15T23:14:13.884Z,17.20
2019-03-15T23:16:40.286Z,17.70
2019-03-15T23:19:06.915Z,19.63
2019-03-15T23:21:33.664Z,16.77
2019-03-15T23:24:00.307Z,17.33
2019-03-15T23:26:26.983Z,17.40
2019-03-15T23:28:53.649Z,14.40
2019-03-15T23:31:20.232Z,15.77
2019-03-15T23:33:46.677Z,17.63
2019-03-15T23:36:13.206Z,17.53
2019-03-15T23:38:39.504Z,18.57
2019-03-15T23:41:06.077Z,18.50
2019-03-15T23:43:32.811Z,18.47
2019-03-15T23:45:59.249Z,12.83
2019-03-15T23:48:25.873Z,17.43
2019-03-15T23:50:52.504Z,16.40
2019-03-15T23:53:19.224Z,13.47
2019-03-15T23:55:45.743Z,15.47
2019-03-15T23:58:12.409Z,22.80
